EDT,Max TemperatureF,Mean TemperatureF,Min TemperatureF,Max Dew PointF,MeanDew PointF,Min DewpointF,Max Humidity, Mean Humidity, Min Humidity, Max Sea Level PressureIn, Mean Sea Level PressureIn, Min Sea Level PressureIn, Max VisibilityMiles, Mean VisibilityMiles, Min VisibilityMiles, Max Wind SpeedMPH, Mean Wind SpeedMPH, Max Gust SpeedMPH,PrecipitationIn, CloudCover, Events, WindDirDegrees
2013-4-1,43,62,44,43,34,17,43,35,29,29.89,29.73,29.64,,,,18,15,32,0.00,2,Rain,278
2013-4-2,51,40,28,21,13,10,63,31,19,30.09,30.00,29.92,,,,23,9,33,0.00,0,,296
2013-4-3,39,42,33,14,12,8,46,28,18,30.29,30.18,30.11,,,,22,10,31,0.00,1,,294
2013-4-4,51,47,28,28,19,9,56,32,15,30.40,30.27,30.13,,,,16,5,16,0.00,0,,204
2013-4-5,45,56,41,40,29,18,87,47,13,30.10,29.89,29.71,,,,13,4,23,0.00,4,Rain,311
2013-4-6,34,50,37,27,19,11,55,34,14,30.32,30.22,30.00,,,,10,7,23,0.00,0,,332
2013-4-7,66,49,32,43,34,25,82,53,26,30.32,30.18,30.03,,,,21,5,29,0.00,0,,186
2013-4-8,72,76,64,49,47,45,58,40,28,30.02,30.01,30.00,,,,9,8,18,0.00,0,,162
2013-4-9,77,78,64,52,48,38,53,39,15,29.99,29.96,29.93,,,,20,9,32,0.00,0,,253
2013-4-10,68,78,60,57,51,47,75,47,22,29.94,29.87,29.79,,,,17,9,25,0.00,2,Rain-Thunderstorm,144
2013-4-11,51,62,53,59,52,43,88,68,52,29.99,29.92,29.79,,,,17,7,25,0.00,6,Rain-Thunderstorm,98
2013-4-12,46,51,46,48,44,43,100,80,69,29.96,29.80,29.67,,,,22,15,32,0.00,8,Rain,64
2013-4-13,46,56,42,47,42,33,100,71,27,29.97,29.85,29.72,,,,12,4,23,0.00,5,Rain,310
2013-4-14,70,56,42,44,35,24,86,49,19,30.19,30.06,29.97,,,,23,5,30,0.00,2,,289
2013-4-15,57,58,50,42,34,31,57,39,30,30.36,30.31,30.19,,,,14,8,20,0.00,3,,102
2013-4-16,68,66,53,54,49,42,71,52,37,30.36,30.27,30.14,,,,16,8,29,0.00,4,,149
2013-4-17,46,70,57,55,47,39,83,50,21,30.27,30.19,30.11,,,,12,5,,0.00,3,,192
2013-4-18,66,58,45,57,47,39,83,62,42,30.32,30.25,30.11,,,,13,5,25,0.00,7,Rain,117
2013-4-19,64,75,66,64,60,55,73,61,44,30.07,29.88,29.68,,,,24,12,37,0.00,4,Rain,185
2013-4-20,52,64,55,63,39,24,75,46,22,30.26,29.93,29.69,,,,24,12,31,0.00,3,Rain,288
2013-4-21,64,52,36,31,23,19,73,37,18,30.61,30.50,30.29,,,,12,7,20,0.00,0,,41
2013-4-22,51,44,32,39,33,28,86,62,43,30.61,30.55,30.46,,,,22,8,32,0.00,5,,77
2013-4-23,52,52,48,42,39,35,77,63,53,30.46,30.27,30.11,,,,16,10,24,0.00,8,Rain,26
2013-4-24,68,63,42,52,47,36,79,50,31,30.10,29.96,29.85,,,,18,8,23,0.00,0,,207
2013-4-25,75,62,46,52,35,23,66,39,15,30.27,30.12,29.90,,,,17,9,37,0.00,3,,274
2013-4-26,42,64,48,37,32,24,64,35,15,30.39,30.37,30.35,,,,13,7,,0.00,0,,170
2013-4-27,81,60,39,36,31,25,76,49,13,30.42,30.39,30.31,,,,7,1,,0.00,0,,101
2013-4-28,81,,81,33,33,33,18,18,18,30.27,30.27,30.27,,,,10,10,17,0.00,0,,160
2013-4-29,66,64,61,53,51,47,72,64,50,30.21,30.20,30.17,,,,10,6,,0.00,8,Rain,143
2013-4-30,73,68,63,47,39,30,56,37,25,30.30,30.26,30.24,,,,14,11,,0.00,3,,90